Аэропорт: Шымкент. Шымкент

ICAO: UAII

METAR:
2019-12-12 10:30:00
UAII 121030Z 25004MPS 6000 SCT016 OVC033CB 08/07 Q1016 R10/1///60 NOSIG RMK QFE727/0969
METAR:
2019-12-12 05:00:00
TAF UAII 120500Z 1206/1306 20004MPS 0600 SHRA FG SCT003 OVC015CB TX10/1208Z TN02/1301Z TEMPO 1206/1212 17005MPS 0800 BKN005 OVC025CB TEMPO 1212/1221 25005G10MPS 0300 BKN004 OVC015CB TEMPO 1221/1305 23008G13MPS 1000 BR BKN007 OVC020CB